Mc Caysville, Georgia
Current Conditions -  °F | °C
As of 8:15 PM on Sunday 23 Nov 2014 (Local Time) from KDNN Reporting Station
Overcast Overcast  
Wind Chill: 57°   Ceiling: 2000
Heat Index: 57°   Visibility: 10mi
Dew Point: 57°   Wind: 9mph
Humidity: 100%   Direction: 160°SSE
Pressure: 29.65"   Gusts: 16mph
Location:  34.9342°N, 84.3792°W
Report Text: KDNN 240115Z AUTO 16008G14KT 10SM BKN020 OVC027 14/14 A2965 RMK AO2
Loading
Personal Weather Stations






























Interactive Weather Map New forecast layout! Learn more

10-Day Weather Forecast

Advertisements
Track Severe Weather on mobile